createdAt,value
2017-09-25T00:00:50.995Z,49.13
2017-09-25T00:03:19.260Z,48.53
2017-09-25T00:05:47.652Z,45.93
2017-09-25T00:08:15.894Z,48.97
2017-09-25T00:10:43.375Z,50.47
2017-09-25T00:13:11.613Z,49.10
2017-09-25T00:15:39.100Z,44.40
2017-09-25T00:18:07.375Z,52.53
2017-09-25T00:20:35.641Z,50.10
2017-09-25T00:23:03.111Z,52.80
2017-09-25T00:25:31.383Z,45.67
2017-09-25T00:27:58.852Z,64.80
2017-09-25T00:30:27.088Z,51.70
2017-09-25T00:32:54.588Z,55.60
2017-09-25T00:35:22.858Z,51.60
2017-09-25T00:37:50.335Z,61.73
2017-09-25T00:40:18.004Z,57.70
2017-09-25T00:42:45.465Z,58.87
2017-09-25T00:45:12.985Z,49.50
2017-09-25T00:47:41.250Z,52.03
2017-09-25T00:50:08.879Z,53.00
2017-09-25T00:52:48.094Z,48.70
2017-09-25T00:55:27.532Z,58.20
2017-09-25T00:57:55.018Z,53.10
2017-09-25T01:00:35.324Z,56.87
2017-09-25T01:03:14.811Z,59.50
2017-09-25T01:05:54.088Z,51.70
2017-09-25T01:08:21.578Z,51.63
2017-09-25T01:10:49.043Z,52.43
2017-09-25T01:13:16.524Z,50.20
2017-09-25T01:15:44.109Z,58.17
2017-09-25T01:18:12.382Z,49.10
2017-09-25T01:20:40.650Z,53.93
2017-09-25T01:23:08.135Z,55.60
2017-09-25T01:25:35.600Z,58.90
2017-09-25T01:28:03.078Z,53.00
2017-09-25T01:30:31.551Z,55.37
2017-09-25T01:32:59.028Z,56.53
2017-09-25T01:35:26.791Z,58.60
2017-09-25T01:37:54.271Z,66.83
2017-09-25T01:40:21.836Z,62.73
2017-09-25T01:42:49.297Z,60.53
2017-09-25T01:45:16.819Z,57.50
2017-09-25T01:47:44.360Z,62.50
2017-09-25T01:50:12.591Z,66.07
2017-09-25T01:52:40.155Z,67.00
2017-09-25T01:55:07.642Z,68.23
2017-09-25T01:57:35.103Z,58.80
2017-09-25T02:00:02.587Z,56.80
2017-09-25T02:02:30.055Z,60.80
2017-09-25T02:04:57.547Z,59.57
2017-09-25T02:07:26.707Z,64.80
2017-09-25T02:09:54.979Z,57.63
2017-09-25T02:12:22.603Z,53.73
2017-09-25T02:14:50.092Z,57.00
2017-09-25T02:17:17.593Z,57.33
2017-09-25T02:19:45.873Z,65.60
2017-09-25T02:22:14.119Z,70.77
2017-09-25T02:24:41.895Z,61.50
2017-09-25T02:27:09.452Z,67.27
2017-09-25T02:29:36.919Z,52.13
2017-09-25T02:32:05.179Z,69.33
2017-09-25T02:34:32.738Z,78.00
2017-09-25T02:37:00.991Z,72.00
2017-09-25T02:39:28.455Z,61.03
2017-09-25T02:41:55.935Z,76.07
2017-09-25T02:44:24.207Z,75.47
2017-09-25T02:46:51.773Z,66.10
2017-09-25T02:49:19.333Z,85.67
2017-09-25T02:51:47.996Z,100.33
2017-09-25T02:54:15.576Z,118.03
2017-09-25T02:56:43.831Z,89.50
2017-09-25T02:59:11.312Z,102.17
2017-09-25T03:01:39.834Z,96.43
2017-09-25T03:04:07.298Z,99.63
2017-09-25T03:06:34.784Z,80.73
2017-09-25T03:09:04.627Z,116.67
2017-09-25T03:11:32.856Z,96.60
2017-09-25T03:14:00.336Z,78.67
2017-09-25T03:16:27.899Z,119.43
2017-09-25T03:18:55.376Z,108.43
2017-09-25T03:21:22.862Z,96.90
2017-09-25T03:23:50.391Z,77.97
2017-09-25T03:26:18.638Z,127.30
2017-09-25T03:28:46.123Z,100.03
2017-09-25T03:31:14.424Z,113.90
2017-09-25T03:33:42.356Z,79.87
2017-09-25T03:36:10.730Z,132.20
2017-09-25T03:38:38.995Z,102.73
2017-09-25T03:41:08.069Z,89.00
2017-09-25T03:43:35.615Z,116.97
2017-09-25T03:46:03.111Z,95.37
2017-09-25T03:48:31.360Z,85.67
2017-09-25T03:50:58.939Z,109.20
2017-09-25T03:53:26.405Z,97.80
2017-09-25T03:55:53.871Z,131.13
2017-09-25T03:58:22.132Z,95.27
2017-09-25T04:00:49.592Z,74.50
2017-09-25T04:03:17.816Z,93.73
2017-09-25T04:05:45.321Z,117.43
2017-09-25T04:08:13.562Z,87.17
2017-09-25T04:10:41.158Z,97.87
2017-09-25T04:13:08.711Z,105.03
2017-09-25T04:15:37.607Z,121.03
2017-09-25T04:18:05.075Z,88.33
2017-09-25T04:20:32.628Z,111.73
2017-09-25T04:23:00.859Z,91.57
2017-09-25T04:25:28.323Z,71.83
2017-09-25T04:27:56.707Z,116.17
2017-09-25T04:30:24.205Z,85.77
2017-09-25T04:32:52.480Z,82.77
2017-09-25T04:35:20.860Z,94.63
2017-09-25T04:37:48.447Z,74.00
2017-09-25T04:40:16.932Z,103.97
2017-09-25T04:42:44.423Z,77.87
2017-09-25T04:45:11.895Z,91.33
2017-09-25T04:47:40.153Z,74.90
2017-09-25T04:50:07.659Z,90.53
2017-09-25T04:52:35.140Z,98.37
2017-09-25T04:55:02.640Z,101.87
2017-09-25T04:57:30.920Z,106.33
2017-09-25T04:59:58.559Z,110.40
2017-09-25T05:02:26.035Z,104.93
2017-09-25T05:04:53.602Z,95.83
2017-09-25T05:07:21.849Z,107.00
2017-09-25T05:09:49.358Z,164.37
2017-09-25T05:12:16.947Z,116.57
2017-09-25T05:14:44.452Z,106.93
2017-09-25T05:17:12.703Z,138.13
2017-09-25T05:19:40.177Z,85.27
2017-09-25T05:22:07.696Z,105.07
2017-09-25T05:24:35.189Z,70.23
2017-09-25T05:27:02.676Z,86.20
2017-09-25T05:29:30.146Z,92.63
2017-09-25T05:31:57.633Z,98.00
2017-09-25T05:34:25.220Z,118.50
2017-09-25T05:36:52.816Z,190.10
2017-09-25T05:39:20.291Z,116.67
2017-09-25T05:41:47.928Z,103.73
2017-09-25T05:44:15.401Z,127.60
2017-09-25T05:46:42.883Z,94.97
2017-09-25T05:49:10.645Z,81.10
2017-09-25T05:51:38.119Z,109.67
2017-09-25T05:54:05.738Z,151.40
2017-09-25T05:56:33.231Z,181.57
2017-09-25T05:59:00.718Z,186.47
2017-09-25T06:01:30.002Z,153.43
2017-09-25T06:03:57.770Z,143.73
2017-09-25T06:06:25.346Z,128.57
2017-09-25T06:08:53.588Z,97.67
2017-09-25T06:11:21.080Z,146.43
2017-09-25T06:13:49.530Z,172.23
2017-09-25T06:16:17.044Z,82.23
2017-09-25T06:18:44.640Z,92.20
2017-09-25T06:21:12.215Z,116.17
2017-09-25T06:23:39.687Z,68.80
2017-09-25T06:26:08.062Z,142.07
2017-09-25T06:28:36.488Z,79.83
2017-09-25T06:31:04.176Z,141.70
2017-09-25T06:33:31.747Z,102.53
2017-09-25T06:35:59.307Z,103.87
2017-09-25T06:38:27.536Z,88.73
2017-09-25T06:40:55.140Z,117.83
2017-09-25T06:43:23.439Z,91.73
2017-09-25T06:45:51.149Z,77.80
2017-09-25T06:48:19.088Z,57.67
2017-09-25T06:50:47.259Z,76.53
2017-09-25T06:53:15.197Z,60.13
2017-09-25T06:55:43.449Z,89.90
2017-09-25T06:58:11.096Z,93.57
2017-09-25T07:00:38.572Z,67.03
2017-09-25T07:03:06.608Z,68.37
2017-09-25T07:05:34.124Z,62.47
2017-09-25T07:08:01.620Z,64.00
2017-09-25T07:10:30.107Z,69.50
2017-09-25T07:12:58.431Z,61.33
2017-09-25T07:15:25.943Z,67.93
2017-09-25T07:17:53.460Z,67.57
2017-09-25T07:20:21.700Z,56.47
2017-09-25T07:22:49.250Z,62.37
2017-09-25T07:25:16.744Z,75.33
2017-09-25T07:27:44.990Z,55.00
2017-09-25T07:30:13.469Z,66.13
2017-09-25T07:32:41.065Z,59.77
2017-09-25T07:35:09.316Z,62.50
2017-09-25T07:37:36.790Z,50.63
2017-09-25T07:40:05.086Z,51.03
2017-09-25T07:42:32.592Z,48.93
2017-09-25T07:45:00.077Z,50.43
2017-09-25T07:47:28.329Z,47.37
2017-09-25T07:49:56.629Z,47.00
2017-09-25T07:52:24.172Z,45.30
2017-09-25T07:54:51.648Z,50.87
2017-09-25T07:57:19.896Z,49.73
2017-09-25T07:59:47.370Z,51.73
2017-09-25T08:02:14.859Z,45.03
2017-09-25T08:04:42.333Z,41.13
2017-09-25T08:07:09.803Z,46.93
2017-09-25T08:09:37.286Z,43.80
2017-09-25T08:12:04.769Z,47.97
2017-09-25T08:14:33.035Z,43.07
2017-09-25T08:17:00.510Z,42.40
2017-09-25T08:19:28.035Z,42.73
2017-09-25T08:21:55.520Z,42.97
2017-09-25T08:24:23.777Z,50.00
2017-09-25T08:26:52.880Z,37.40
2017-09-25T08:29:21.114Z,44.70
2017-09-25T08:31:48.604Z,41.50
2017-09-25T08:34:16.159Z,47.33
2017-09-25T08:36:43.631Z,42.30
2017-09-25T08:39:11.881Z,41.53
2017-09-25T08:41:39.349Z,41.80
2017-09-25T08:44:07.347Z,41.30
2017-09-25T08:46:35.720Z,47.00
2017-09-25T08:49:04.022Z,41.70
2017-09-25T08:51:31.512Z,43.80
2017-09-25T08:53:58.984Z,44.73
2017-09-25T08:56:26.464Z,45.63
2017-09-25T08:58:54.713Z,45.17
2017-09-25T09:01:22.195Z,50.33
2017-09-25T09:03:50.435Z,40.20
2017-09-25T09:06:18.778Z,39.00
2017-09-25T09:08:48.878Z,42.60
2017-09-25T09:11:16.395Z,44.43
2017-09-25T09:13:43.894Z,48.47
2017-09-25T09:16:11.379Z,48.63
2017-09-25T09:18:38.867Z,40.07
2017-09-25T09:21:07.128Z,43.93
2017-09-25T09:23:34.633Z,47.07
2017-09-25T09:26:02.884Z,40.70
2017-09-25T09:28:31.127Z,48.83
2017-09-25T09:30:58.616Z,46.27
2017-09-25T09:33:26.852Z,43.67
2017-09-25T09:35:54.336Z,37.43
2017-09-25T09:38:21.908Z,40.07
2017-09-25T09:40:49.471Z,39.93
2017-09-25T09:43:16.935Z,42.33
2017-09-25T09:45:45.211Z,42.60
2017-09-25T09:48:13.451Z,34.67
2017-09-25T09:50:40.936Z,34.83
2017-09-25T09:53:09.171Z,34.40
2017-09-25T09:55:36.640Z,41.77
2017-09-25T09:58:04.128Z,37.20
2017-09-25T10:00:32.392Z,36.40
2017-09-25T10:02:59.875Z,35.57
2017-09-25T10:05:28.126Z,34.63
2017-09-25T10:07:56.317Z,34.90
2017-09-25T10:10:24.599Z,34.67
2017-09-25T10:12:52.872Z,33.60
2017-09-25T10:15:21.120Z,40.37
2017-09-25T10:17:48.687Z,36.33
2017-09-25T10:20:17.665Z,34.53
2017-09-25T10:22:45.156Z,35.53
2017-09-25T10:25:12.712Z,40.33
2017-09-25T10:27:40.972Z,33.90
2017-09-25T10:30:08.458Z,36.33
2017-09-25T10:32:36.800Z,31.23
2017-09-25T10:35:04.373Z,35.87
2017-09-25T10:37:32.640Z,38.33
2017-09-25T10:40:00.123Z,35.80
2017-09-25T10:42:27.608Z,31.87
2017-09-25T10:44:55.091Z,34.77
2017-09-25T10:47:22.633Z,34.90
2017-09-25T10:49:50.111Z,35.43
2017-09-25T10:52:17.605Z,34.53
2017-09-25T10:54:45.482Z,36.83
2017-09-25T10:57:12.972Z,34.37
2017-09-25T10:59:40.455Z,31.60
2017-09-25T11:02:08.032Z,33.00
2017-09-25T11:04:35.519Z,34.80
2017-09-25T11:07:03.002Z,35.73
2017-09-25T11:09:30.487Z,32.90
2017-09-25T11:11:57.965Z,34.77
2017-09-25T11:14:26.287Z,34.60
2017-09-25T11:16:53.768Z,35.93
2017-09-25T11:19:21.243Z,33.07
2017-09-25T11:21:48.728Z,38.23
2017-09-25T11:24:16.992Z,35.40
2017-09-25T11:26:45.251Z,36.03
2017-09-25T11:29:12.733Z,31.87
2017-09-25T11:31:40.239Z,37.03
2017-09-25T11:34:07.728Z,38.50
2017-09-25T11:36:35.195Z,42.20
2017-09-25T11:39:03.435Z,44.23
2017-09-25T11:41:30.953Z,44.17
2017-09-25T11:43:58.446Z,41.37
2017-09-25T11:46:25.953Z,42.00
2017-09-25T11:48:54.210Z,48.30
2017-09-25T11:51:23.004Z,50.73
2017-09-25T11:53:51.268Z,52.50
2017-09-25T11:56:18.754Z,48.47
2017-09-25T11:58:46.288Z,52.87
2017-09-25T12:01:15.512Z,55.03
2017-09-25T12:03:43.012Z,53.57
2017-09-25T12:06:10.494Z,55.40
2017-09-25T12:08:37.972Z,51.50
2017-09-25T12:11:06.215Z,55.93
2017-09-25T12:13:33.753Z,57.53
2017-09-25T12:16:01.235Z,58.97
2017-09-25T12:18:28.747Z,59.20
2017-09-25T12:20:56.226Z,63.10
2017-09-25T12:23:23.737Z,53.23
2017-09-25T12:25:51.985Z,52.73
2017-09-25T12:28:19.464Z,57.83
2017-09-25T12:30:47.723Z,59.17
2017-09-25T12:33:16.019Z,54.90
2017-09-25T12:35:44.373Z,58.53
2017-09-25T12:38:12.122Z,56.33
2017-09-25T12:40:40.412Z,53.70
2017-09-25T12:43:08.660Z,61.60
2017-09-25T12:45:36.941Z,57.70
2017-09-25T12:48:04.403Z,50.07
2017-09-25T12:50:31.886Z,54.00
2017-09-25T12:53:00.157Z,54.23
2017-09-25T12:55:28.423Z,56.50
2017-09-25T12:57:55.900Z,56.10
2017-09-25T13:00:24.138Z,54.23
2017-09-25T13:02:51.618Z,62.47
2017-09-25T13:05:19.092Z,53.00
2017-09-25T13:07:47.348Z,56.37
2017-09-25T13:10:14.829Z,54.40
2017-09-25T13:12:42.393Z,60.97
2017-09-25T13:15:09.887Z,59.77
2017-09-25T13:17:37.376Z,57.40
2017-09-25T13:20:04.849Z,54.97
2017-09-25T13:22:33.087Z,54.80
2017-09-25T13:25:00.672Z,54.93
2017-09-25T13:27:28.180Z,53.67
2017-09-25T13:29:55.661Z,52.27
2017-09-25T13:32:23.244Z,54.50
2017-09-25T13:34:51.733Z,56.87
2017-09-25T13:37:20.001Z,49.03
2017-09-25T13:39:47.488Z,47.83
2017-09-25T13:42:14.967Z,44.37
2017-09-25T13:44:42.828Z,46.53
2017-09-25T13:47:10.318Z,43.63
2017-09-25T13:49:37.796Z,47.63
2017-09-25T13:52:06.028Z,42.63
2017-09-25T13:54:33.529Z,45.57
2017-09-25T13:57:01.011Z,43.07
2017-09-25T14:04:34.388Z,37.90
2017-09-25T14:07:01.880Z,39.87
2017-09-25T14:09:30.121Z,42.07
2017-09-25T14:11:57.618Z,46.70
2017-09-25T14:14:26.739Z,39.57
2017-09-25T14:16:54.201Z,42.20
2017-09-25T14:19:22.733Z,45.00
2017-09-25T14:21:50.210Z,37.63
2017-09-25T14:24:18.777Z,36.20
2017-09-25T14:26:47.029Z,40.40
2017-09-25T14:29:14.513Z,36.87
2017-09-25T14:31:42.825Z,35.60
2017-09-25T14:34:10.816Z,32.20
2017-09-25T14:36:38.289Z,33.13
2017-09-25T14:39:06.489Z,25.93
2017-09-25T14:41:34.724Z,22.90
2017-09-25T14:44:02.195Z,21.77
2017-09-25T14:46:29.668Z,30.50
2017-09-25T14:48:57.128Z,23.90
2017-09-25T14:51:25.376Z,24.90
2017-09-25T14:53:52.903Z,22.63
2017-09-25T14:56:20.380Z,31.87
2017-09-25T14:58:47.876Z,29.77
2017-09-25T15:01:15.348Z,26.60
2017-09-25T15:03:43.650Z,26.37
2017-09-25T15:06:11.154Z,29.30
2017-09-25T15:08:38.669Z,26.60
2017-09-25T15:11:06.153Z,33.37
2017-09-25T15:13:33.672Z,30.17
2017-09-25T15:16:01.165Z,32.70
2017-09-25T15:18:28.649Z,29.87
2017-09-25T15:20:56.453Z,32.80
2017-09-25T15:23:24.466Z,34.47
2017-09-25T15:25:51.952Z,36.43
2017-09-25T15:28:20.238Z,34.50
2017-09-25T15:30:48.500Z,35.20
2017-09-25T15:33:16.786Z,30.03
2017-09-25T15:35:45.050Z,30.80
2017-09-25T15:38:12.620Z,27.37
2017-09-25T15:40:40.894Z,26.57
2017-09-25T15:43:09.148Z,28.07
2017-09-25T15:45:36.635Z,39.47
2017-09-25T15:48:05.888Z,32.70
2017-09-25T15:50:33.373Z,29.90
2017-09-25T15:53:01.628Z,32.73
2017-09-25T15:55:29.200Z,35.07
2017-09-25T15:57:58.151Z,32.60
2017-09-25T16:00:26.610Z,41.60
2017-09-25T16:02:54.141Z,36.13
2017-09-25T16:05:22.414Z,32.50
2017-09-25T16:07:50.659Z,35.27
2017-09-25T16:10:18.156Z,37.70
2017-09-25T16:12:46.399Z,35.93
2017-09-25T16:15:13.886Z,38.67
2017-09-25T16:17:42.143Z,36.83
2017-09-25T16:20:09.626Z,39.50
2017-09-25T16:22:37.116Z,37.20
2017-09-25T16:25:04.604Z,41.33
2017-09-25T16:27:32.855Z,39.70
2017-09-25T16:30:02.200Z,41.77
2017-09-25T16:32:30.456Z,37.87
2017-09-25T16:34:58.910Z,43.13
2017-09-25T16:37:26.493Z,39.90
2017-09-25T16:39:55.868Z,43.33
2017-09-25T16:42:23.433Z,46.30
2017-09-25T16:44:51.928Z,46.33
2017-09-25T16:47:21.486Z,45.90
2017-09-25T16:49:49.068Z,42.57
2017-09-25T16:52:17.392Z,45.33
2017-09-25T16:54:45.655Z,49.20
2017-09-25T16:57:13.131Z,48.50
2017-09-25T16:59:41.393Z,53.63
2017-09-25T17:02:08.873Z,43.47
2017-09-25T17:04:36.396Z,45.27
2017-09-25T17:07:04.772Z,44.13
2017-09-25T17:09:32.347Z,47.07
2017-09-25T17:12:00.302Z,53.43
2017-09-25T17:14:29.264Z,50.57
2017-09-25T17:16:56.775Z,48.60
2017-09-25T17:19:25.038Z,51.47
2017-09-25T17:21:52.533Z,51.03
2017-09-25T17:24:20.037Z,49.10
2017-09-25T17:26:48.827Z,51.00
2017-09-25T17:29:16.389Z,58.60
2017-09-25T17:31:43.990Z,57.70
2017-09-25T17:34:11.598Z,55.83
2017-09-25T17:36:39.096Z,54.07
2017-09-25T17:39:07.340Z,55.00
2017-09-25T17:41:34.834Z,50.97
2017-09-25T17:44:03.071Z,53.70
2017-09-25T17:46:31.180Z,52.60
2017-09-25T17:48:58.684Z,61.00
2017-09-25T17:51:26.164Z,57.30
2017-09-25T17:53:53.698Z,60.57
2017-09-25T17:56:21.999Z,65.40
2017-09-25T17:58:49.563Z,63.30
2017-09-25T18:01:17.042Z,58.13
2017-09-25T18:03:46.588Z,63.43
2017-09-25T18:06:14.440Z,62.13
2017-09-25T18:08:42.942Z,68.77
2017-09-25T18:11:10.415Z,66.23
2017-09-25T18:13:38.211Z,67.20
2017-09-25T18:16:06.566Z,65.00
2017-09-25T18:18:34.069Z,65.67
2017-09-25T18:21:02.723Z,73.03
2017-09-25T18:23:31.971Z,63.23
2017-09-25T18:25:59.499Z,67.80
2017-09-25T18:28:27.054Z,71.50
2017-09-25T18:30:54.599Z,63.20
2017-09-25T18:33:22.864Z,68.37
2017-09-25T18:35:50.546Z,67.10
2017-09-25T18:38:19.220Z,61.67
2017-09-25T18:40:46.772Z,66.63
2017-09-25T18:43:15.014Z,71.47
2017-09-25T18:45:42.492Z,70.43
2017-09-25T18:48:10.443Z,68.23
2017-09-25T18:50:38.045Z,65.87
2017-09-25T18:53:05.959Z,63.13
2017-09-25T18:55:33.664Z,71.70
2017-09-25T18:58:01.208Z,70.00
2017-09-25T19:00:28.748Z,70.97
2017-09-25T19:02:56.577Z,68.13
2017-09-25T19:05:24.111Z,71.77
2017-09-25T19:07:52.373Z,73.70
2017-09-25T19:10:20.169Z,75.07
2017-09-25T19:12:47.657Z,71.90
2017-09-25T19:15:15.199Z,68.77
2017-09-25T19:17:42.968Z,66.57
2017-09-25T19:20:11.248Z,69.20
2017-09-25T19:22:38.725Z,74.10
2017-09-25T19:25:06.201Z,69.33
2017-09-25T19:27:33.705Z,71.07
2017-09-25T19:30:01.205Z,76.63
2017-09-25T19:32:28.692Z,74.63
2017-09-25T19:34:56.959Z,74.97
2017-09-25T19:37:25.201Z,82.30
2017-09-25T19:39:53.027Z,85.00
2017-09-25T19:42:21.252Z,86.03
2017-09-25T19:44:48.732Z,79.00
2017-09-25T19:47:16.997Z,77.90
2017-09-25T19:50:04.316Z,77.20
2017-09-25T19:52:31.816Z,85.47
2017-09-25T19:55:04.426Z,82.33
2017-09-25T19:57:34.784Z,85.33
2017-09-25T20:00:03.072Z,86.20
2017-09-25T20:02:30.574Z,82.20
2017-09-25T20:04:58.079Z,85.97
2017-09-25T20:07:26.356Z,92.60
2017-09-25T20:09:54.619Z,81.33
2017-09-25T20:12:22.964Z,96.20
2017-09-25T20:15:09.246Z,85.70
2017-09-25T20:17:41.343Z,90.97
2017-09-25T20:20:09.573Z,94.03
2017-09-25T20:22:37.282Z,87.33
2017-09-25T20:25:06.458Z,94.60
2017-09-25T20:27:34.113Z,94.93
2017-09-25T20:30:01.920Z,90.17
2017-09-25T20:32:29.402Z,97.97
2017-09-25T20:34:57.397Z,98.63
2017-09-25T20:37:24.898Z,83.87
2017-09-25T20:39:52.409Z,100.27
2017-09-25T20:42:32.046Z,96.37
2017-09-25T20:45:05.698Z,103.13
2017-09-25T20:47:33.410Z,94.80
2017-09-25T20:50:02.047Z,102.10
2017-09-25T20:52:30.488Z,100.23
2017-09-25T20:54:57.975Z,99.27
2017-09-25T20:57:25.472Z,98.90
2017-09-25T20:59:53.007Z,96.50
2017-09-25T21:02:20.497Z,103.20
2017-09-25T21:04:48.001Z,111.57
2017-09-25T21:07:15.476Z,96.80
2017-09-25T21:09:43.283Z,117.60
2017-09-25T21:12:11.419Z,104.33
2017-09-25T21:14:39.748Z,102.70
2017-09-25T21:17:07.225Z,112.53
2017-09-25T21:19:34.707Z,107.00
2017-09-25T21:22:02.984Z,97.53
2017-09-25T21:24:30.544Z,99.57
2017-09-25T21:27:19.514Z,109.20
2017-09-25T21:29:47.825Z,97.10
2017-09-25T21:32:15.363Z,102.20
2017-09-25T21:34:42.860Z,84.67
2017-09-25T21:37:10.363Z,93.80
2017-09-25T21:39:38.623Z,92.30
2017-09-25T21:42:06.922Z,96.00
2017-09-25T21:44:35.167Z,93.13
2017-09-25T21:47:03.431Z,92.67
2017-09-25T21:49:30.932Z,92.93
2017-09-25T21:51:59.171Z,86.03
2017-09-25T21:54:27.488Z,97.40
2017-09-25T21:56:54.992Z,86.37
2017-09-25T21:59:22.458Z,91.63
2017-09-25T22:01:50.695Z,82.43
2017-09-25T22:04:18.239Z,97.37
2017-09-25T22:06:45.787Z,96.70
2017-09-25T22:09:14.034Z,83.40
2017-09-25T22:11:41.613Z,94.60
2017-09-25T22:14:09.862Z,86.13
2017-09-25T22:16:37.450Z,79.93
2017-09-25T22:19:05.711Z,86.13
2017-09-25T22:21:33.288Z,78.77
2017-09-25T22:24:01.556Z,81.53
2017-09-25T22:26:29.824Z,81.83
2017-09-25T22:28:57.614Z,80.10
2017-09-25T22:31:26.884Z,91.57
2017-09-25T22:33:55.892Z,89.00
2017-09-25T22:36:24.131Z,78.43
2017-09-25T22:38:51.611Z,82.23
2017-09-25T22:41:19.118Z,80.90
2017-09-25T22:43:50.216Z,80.20
2017-09-25T22:46:18.463Z,80.93
2017-09-25T22:48:45.984Z,85.20
2017-09-25T22:51:13.447Z,75.73
2017-09-25T22:53:40.954Z,77.80
2017-09-25T22:56:08.431Z,75.07
2017-09-25T22:58:36.664Z,81.53
2017-09-25T23:01:04.240Z,78.67
2017-09-25T23:03:37.541Z,92.90
2017-09-25T23:06:05.020Z,77.07
2017-09-25T23:08:32.552Z,82.20
2017-09-25T23:11:05.072Z,82.80
2017-09-25T23:13:32.572Z,73.30
2017-09-25T23:16:00.049Z,75.43
2017-09-25T23:18:27.526Z,78.47
2017-09-25T23:20:55.063Z,76.20
2017-09-25T23:23:23.305Z,80.43
2017-09-25T23:25:50.791Z,77.03
2017-09-25T23:28:18.257Z,83.80
2017-09-25T23:30:47.883Z,78.30
2017-09-25T23:33:15.937Z,75.97
2017-09-25T23:35:44.311Z,77.77
2017-09-25T23:38:13.560Z,78.70
2017-09-25T23:40:41.064Z,78.37
2017-09-25T23:43:09.643Z,82.90
2017-09-25T23:45:37.204Z,78.33
2017-09-25T23:48:05.479Z,78.17
2017-09-25T23:50:32.950Z,75.80
2017-09-25T23:53:01.239Z,80.00
2017-09-25T23:55:28.726Z,79.17
2017-09-25T23:57:56.222Z,84.37
